sensor_id;sensor_type;location;lat;lon;timestamp;P1;durP1;ratioP1;P2;durP2;ratioP2
36691;SDS011;22678;52.052;4.242;2023-02-22T00:02:10;101.47;;;39.47;;
36691;SDS011;22678;52.052;4.242;2023-02-22T00:04:37;102.00;;;39.93;;
36691;SDS011;22678;52.052;4.242;2023-02-22T00:07:06;97.20;;;43.30;;
36691;SDS011;22678;52.052;4.242;2023-02-22T00:09:32;97.73;;;41.20;;
36691;SDS011;22678;52.052;4.242;2023-02-22T00:11:57;101.73;;;38.93;;
36691;SDS011;22678;52.052;4.242;2023-02-22T00:14:22;90.13;;;38.53;;
36691;SDS011;22678;52.052;4.242;2023-02-22T00:16:51;98.03;;;38.87;;
36691;SDS011;22678;52.052;4.242;2023-02-22T00:19:17;103.53;;;40.83;;
36691;SDS011;22678;52.052;4.242;2023-02-22T00:21:42;91.37;;;41.90;;
36691;SDS011;22678;52.052;4.242;2023-02-22T00:24:08;97.70;;;39.03;;
36691;SDS011;22678;52.052;4.242;2023-02-22T00:26:47;101.53;;;33.93;;
36691;SDS011;22678;52.052;4.242;2023-02-22T00:29:14;91.97;;;35.80;;
36691;SDS011;22678;52.052;4.242;2023-02-22T00:31:39;92.53;;;40.37;;
36691;SDS011;22678;52.052;4.242;2023-02-22T00:34:05;104.40;;;41.30;;
36691;SDS011;22678;52.052;4.242;2023-02-22T00:36:30;101.17;;;38.83;;
36691;SDS011;22678;52.052;4.242;2023-02-22T00:38:55;104.43;;;47.07;;
36691;SDS011;22678;52.052;4.242;2023-02-22T00:41:20;107.97;;;43.73;;
36691;SDS011;22678;52.052;4.242;2023-02-22T00:43:46;121.67;;;45.40;;
36691;SDS011;22678;52.052;4.242;2023-02-22T00:46:13;112.40;;;43.90;;
36691;SDS011;22678;52.052;4.242;2023-02-22T00:48:38;109.63;;;42.47;;
36691;SDS011;22678;52.052;4.242;2023-02-22T00:51:04;98.97;;;40.97;;
36691;SDS011;22678;52.052;4.242;2023-02-22T00:53:29;102.53;;;42.10;;
36691;SDS011;22678;52.052;4.242;2023-02-22T00:55:54;103.20;;;40.87;;
36691;SDS011;22678;52.052;4.242;2023-02-22T00:58:20;92.97;;;36.57;;
36691;SDS011;22678;52.052;4.242;2023-02-22T01:00:47;109.10;;;41.63;;
36691;SDS011;22678;52.052;4.242;2023-02-22T01:03:13;96.20;;;40.93;;
36691;SDS011;22678;52.052;4.242;2023-02-22T01:05:40;110.30;;;38.83;;
36691;SDS011;22678;52.052;4.242;2023-02-22T01:08:07;96.67;;;40.83;;
36691;SDS011;22678;52.052;4.242;2023-02-22T01:10:33;95.60;;;40.60;;
36691;SDS011;22678;52.052;4.242;2023-02-22T01:13:00;85.87;;;38.50;;
36691;SDS011;22678;52.052;4.242;2023-02-22T01:15:26;100.67;;;43.00;;
36691;SDS011;22678;52.052;4.242;2023-02-22T01:17:54;107.43;;;40.67;;
36691;SDS011;22678;52.052;4.242;2023-02-22T01:20:22;107.03;;;43.47;;
36691;SDS011;22678;52.052;4.242;2023-02-22T01:22:49;102.30;;;38.53;;
36691;SDS011;22678;52.052;4.242;2023-02-22T01:25:18;99.37;;;40.33;;
36691;SDS011;22678;52.052;4.242;2023-02-22T01:27:45;89.17;;;38.67;;
36691;SDS011;22678;52.052;4.242;2023-02-22T01:30:13;94.87;;;38.00;;
36691;SDS011;22678;52.052;4.242;2023-02-22T01:32:39;98.10;;;42.77;;
36691;SDS011;22678;52.052;4.242;2023-02-22T01:35:06;94.87;;;42.40;;
36691;SDS011;22678;52.052;4.242;2023-02-22T01:37:34;97.43;;;40.77;;
36691;SDS011;22678;52.052;4.242;2023-02-22T01:40:00;103.60;;;40.37;;
36691;SDS011;22678;52.052;4.242;2023-02-22T01:42:26;95.43;;;40.40;;
36691;SDS011;22678;52.052;4.242;2023-02-22T01:48:01;98.00;;;39.70;;
36691;SDS011;22678;52.052;4.242;2023-02-22T01:50:28;108.70;;;43.47;;
36691;SDS011;22678;52.052;4.242;2023-02-22T01:52:57;100.17;;;42.83;;
36691;SDS011;22678;52.052;4.242;2023-02-22T01:55:22;109.40;;;40.10;;
36691;SDS011;22678;52.052;4.242;2023-02-22T01:57:49;108.50;;;41.23;;
36691;SDS011;22678;52.052;4.242;2023-02-22T02:00:16;98.23;;;40.47;;
36691;SDS011;22678;52.052;4.242;2023-02-22T02:02:47;106.40;;;42.67;;
36691;SDS011;22678;52.052;4.242;2023-02-22T02:05:15;96.60;;;42.57;;
36691;SDS011;22678;52.052;4.242;2023-02-22T02:07:41;97.53;;;41.37;;
36691;SDS011;22678;52.052;4.242;2023-02-22T02:10:11;106.50;;;43.17;;
36691;SDS011;22678;52.052;4.242;2023-02-22T02:12:40;102.23;;;40.30;;
36691;SDS011;22678;52.052;4.242;2023-02-22T02:17:55;106.73;;;43.30;;
36691;SDS011;22678;52.052;4.242;2023-02-22T02:28:36;107.05;;;40.38;;
36691;SDS011;22678;52.052;4.242;2023-02-22T02:36:19;112.37;;;43.73;;
36691;SDS011;22678;52.052;4.242;2023-02-22T02:38:54;103.03;;;43.93;;
36691;SDS011;22678;52.052;4.242;2023-02-22T02:41:23;103.30;;;40.87;;
36691;SDS011;22678;52.052;4.242;2023-02-22T02:44:01;106.90;;;44.73;;
36691;SDS011;22678;52.052;4.242;2023-02-22T02:46:34;117.63;;;42.97;;
36691;SDS011;22678;52.052;4.242;2023-02-22T02:49:05;114.20;;;43.97;;
36691;SDS011;22678;52.052;4.242;2023-02-22T02:51:36;119.10;;;44.10;;
36691;SDS011;22678;52.052;4.242;2023-02-22T02:54:05;115.27;;;41.23;;
36691;SDS011;22678;52.052;4.242;2023-02-22T02:56:32;114.53;;;45.33;;
36691;SDS011;22678;52.052;4.242;2023-02-22T02:58:58;119.60;;;45.50;;
36691;SDS011;22678;52.052;4.242;2023-02-22T03:09:47;109.20;;;39.33;;
36691;SDS011;22678;52.052;4.242;2023-02-22T03:15:48;78.40;;;30.38;;
36691;SDS011;22678;52.052;4.242;2023-02-22T03:21:36;110.77;;;43.30;;
36691;SDS011;22678;52.052;4.242;2023-02-22T03:29:33;116.00;;;45.03;;
36691;SDS011;22678;52.052;4.242;2023-02-22T03:32:06;116.47;;;44.47;;
36691;SDS011;22678;52.052;4.242;2023-02-22T03:34:34;100.93;;;39.53;;
36691;SDS011;22678;52.052;4.242;2023-02-22T03:37:07;112.80;;;40.00;;
36691;SDS011;22678;52.052;4.242;2023-02-22T03:39:38;123.63;;;44.20;;
36691;SDS011;22678;52.052;4.242;2023-02-22T03:42:07;125.13;;;47.57;;
36691;SDS011;22678;52.052;4.242;2023-02-22T03:44:37;123.50;;;43.63;;
36691;SDS011;22678;52.052;4.242;2023-02-22T03:47:05;111.37;;;38.67;;
36691;SDS011;22678;52.052;4.242;2023-02-22T03:49:35;113.63;;;44.47;;
36691;SDS011;22678;52.052;4.242;2023-02-22T03:52:06;104.97;;;41.10;;
36691;SDS011;22678;52.052;4.242;2023-02-22T03:54:33;113.30;;;38.37;;
36691;SDS011;22678;52.052;4.242;2023-02-22T03:57:19;110.93;;;43.77;;
36691;SDS011;22678;52.052;4.242;2023-02-22T03:59:50;115.27;;;43.57;;
36691;SDS011;22678;52.052;4.242;2023-02-22T04:02:16;136.77;;;46.93;;
36691;SDS011;22678;52.052;4.242;2023-02-22T04:04:43;121.23;;;42.83;;
36691;SDS011;22678;52.052;4.242;2023-02-22T04:07:11;121.13;;;45.20;;
36691;SDS011;22678;52.052;4.242;2023-02-22T04:09:36;135.23;;;46.20;;
36691;SDS011;22678;52.052;4.242;2023-02-22T04:12:02;126.90;;;46.27;;
36691;SDS011;22678;52.052;4.242;2023-02-22T04:14:28;123.13;;;40.53;;
36691;SDS011;22678;52.052;4.242;2023-02-22T04:16:53;134.43;;;46.30;;
36691;SDS011;22678;52.052;4.242;2023-02-22T04:19:18;121.90;;;41.63;;
36691;SDS011;22678;52.052;4.242;2023-02-22T04:21:44;125.47;;;47.17;;
36691;SDS011;22678;52.052;4.242;2023-02-22T04:24:09;113.27;;;38.77;;
36691;SDS011;22678;52.052;4.242;2023-02-22T04:26:35;126.80;;;43.93;;
36691;SDS011;22678;52.052;4.242;2023-02-22T04:29:01;114.13;;;40.53;;
36691;SDS011;22678;52.052;4.242;2023-02-22T04:31:26;92.97;;;36.37;;
36691;SDS011;22678;52.052;4.242;2023-02-22T04:33:51;97.53;;;34.83;;
36691;SDS011;22678;52.052;4.242;2023-02-22T04:36:17;92.90;;;37.50;;
36691;SDS011;22678;52.052;4.242;2023-02-22T04:38:42;102.97;;;36.00;;
36691;SDS011;22678;52.052;4.242;2023-02-22T04:41:08;89.67;;;33.27;;
36691;SDS011;22678;52.052;4.242;2023-02-22T04:43:33;99.00;;;36.63;;
36691;SDS011;22678;52.052;4.242;2023-02-22T04:45:59;94.63;;;38.37;;
36691;SDS011;22678;52.052;4.242;2023-02-22T04:48:24;96.73;;;37.37;;
36691;SDS011;22678;52.052;4.242;2023-02-22T04:50:49;93.60;;;36.97;;
36691;SDS011;22678;52.052;4.242;2023-02-22T04:53:16;103.50;;;38.47;;
36691;SDS011;22678;52.052;4.242;2023-02-22T04:55:41;101.90;;;37.73;;
36691;SDS011;22678;52.052;4.242;2023-02-22T04:58:06;99.27;;;33.67;;
36691;SDS011;22678;52.052;4.242;2023-02-22T05:00:32;95.33;;;32.40;;
36691;SDS011;22678;52.052;4.242;2023-02-22T05:02:57;85.80;;;33.23;;
36691;SDS011;22678;52.052;4.242;2023-02-22T05:05:22;86.50;;;33.13;;
36691;SDS011;22678;52.052;4.242;2023-02-22T05:07:48;84.93;;;32.43;;
36691;SDS011;22678;52.052;4.242;2023-02-22T05:10:14;106.00;;;35.70;;
36691;SDS011;22678;52.052;4.242;2023-02-22T05:12:39;94.77;;;38.07;;
36691;SDS011;22678;52.052;4.242;2023-02-22T05:15:06;87.87;;;32.43;;
36691;SDS011;22678;52.052;4.242;2023-02-22T05:17:32;95.60;;;35.27;;
36691;SDS011;22678;52.052;4.242;2023-02-22T05:19:59;101.93;;;33.07;;
36691;SDS011;22678;52.052;4.242;2023-02-22T05:22:24;90.27;;;31.83;;
36691;SDS011;22678;52.052;4.242;2023-02-22T05:24:49;100.43;;;30.20;;
36691;SDS011;22678;52.052;4.242;2023-02-22T05:27:16;75.73;;;30.03;;
36691;SDS011;22678;52.052;4.242;2023-02-22T05:29:42;84.57;;;29.03;;
36691;SDS011;22678;52.052;4.242;2023-02-22T05:32:07;95.50;;;34.23;;
36691;SDS011;22678;52.052;4.242;2023-02-22T05:34:33;90.73;;;35.50;;
36691;SDS011;22678;52.052;4.242;2023-02-22T05:36:58;82.57;;;31.50;;
36691;SDS011;22678;52.052;4.242;2023-02-22T05:39:23;86.10;;;28.87;;
36691;SDS011;22678;52.052;4.242;2023-02-22T05:41:49;104.20;;;33.07;;
36691;SDS011;22678;52.052;4.242;2023-02-22T05:44:14;105.07;;;35.60;;
36691;SDS011;22678;52.052;4.242;2023-02-22T05:46:39;95.47;;;30.03;;
36691;SDS011;22678;52.052;4.242;2023-02-22T05:49:05;103.73;;;32.83;;
36691;SDS011;22678;52.052;4.242;2023-02-22T05:51:30;86.07;;;32.00;;
36691;SDS011;22678;52.052;4.242;2023-02-22T05:53:56;84.43;;;30.97;;
36691;SDS011;22678;52.052;4.242;2023-02-22T05:56:25;79.77;;;31.40;;
36691;SDS011;22678;52.052;4.242;2023-02-22T05:58:52;103.23;;;31.50;;
36691;SDS011;22678;52.052;4.242;2023-02-22T06:01:18;92.87;;;32.37;;
36691;SDS011;22678;52.052;4.242;2023-02-22T06:03:47;85.97;;;30.23;;
36691;SDS011;22678;52.052;4.242;2023-02-22T06:06:14;83.37;;;31.10;;
36691;SDS011;22678;52.052;4.242;2023-02-22T06:08:40;81.20;;;27.23;;
36691;SDS011;22678;52.052;4.242;2023-02-22T06:11:05;84.80;;;30.40;;
36691;SDS011;22678;52.052;4.242;2023-02-22T06:13:30;76.27;;;31.03;;
36691;SDS011;22678;52.052;4.242;2023-02-22T06:15:56;75.17;;;28.10;;
36691;SDS011;22678;52.052;4.242;2023-02-22T06:18:21;81.97;;;26.47;;
36691;SDS011;22678;52.052;4.242;2023-02-22T06:20:50;74.70;;;28.00;;
36691;SDS011;22678;52.052;4.242;2023-02-22T06:23:16;79.27;;;32.07;;
36691;SDS011;22678;52.052;4.242;2023-02-22T06:25:41;83.73;;;29.83;;
36691;SDS011;22678;52.052;4.242;2023-02-22T06:30:34;67.83;;;29.10;;
36691;SDS011;22678;52.052;4.242;2023-02-22T06:32:59;78.17;;;26.27;;
36691;SDS011;22678;52.052;4.242;2023-02-22T06:35:24;60.93;;;25.03;;
36691;SDS011;22678;52.052;4.242;2023-02-22T06:37:50;72.97;;;24.07;;
36691;SDS011;22678;52.052;4.242;2023-02-22T06:40:15;70.97;;;26.00;;
36691;SDS011;22678;52.052;4.242;2023-02-22T06:42:41;58.97;;;23.67;;
36691;SDS011;22678;52.052;4.242;2023-02-22T06:45:06;65.13;;;27.83;;
36691;SDS011;22678;52.052;4.242;2023-02-22T06:47:32;59.30;;;24.83;;
36691;SDS011;22678;52.052;4.242;2023-02-22T06:50:01;63.70;;;25.40;;
36691;SDS011;22678;52.052;4.242;2023-02-22T06:52:26;63.67;;;23.50;;
36691;SDS011;22678;52.052;4.242;2023-02-22T06:54:52;66.60;;;25.00;;
36691;SDS011;22678;52.052;4.242;2023-02-22T06:57:17;62.63;;;25.17;;
36691;SDS011;22678;52.052;4.242;2023-02-22T06:59:42;76.23;;;27.17;;
36691;SDS011;22678;52.052;4.242;2023-02-22T07:02:09;66.23;;;25.20;;
36691;SDS011;22678;52.052;4.242;2023-02-22T07:04:36;67.23;;;26.87;;
36691;SDS011;22678;52.052;4.242;2023-02-22T07:07:01;69.00;;;27.67;;
36691;SDS011;22678;52.052;4.242;2023-02-22T07:09:26;62.73;;;25.70;;
36691;SDS011;22678;52.052;4.242;2023-02-22T07:11:52;61.83;;;26.40;;
36691;SDS011;22678;52.052;4.242;2023-02-22T07:14:17;66.53;;;27.83;;
36691;SDS011;22678;52.052;4.242;2023-02-22T07:16:42;70.00;;;25.90;;
36691;SDS011;22678;52.052;4.242;2023-02-22T07:19:08;72.20;;;26.67;;
36691;SDS011;22678;52.052;4.242;2023-02-22T07:21:33;75.00;;;27.70;;
36691;SDS011;22678;52.052;4.242;2023-02-22T07:23:58;72.87;;;28.27;;
36691;SDS011;22678;52.052;4.242;2023-02-22T07:26:24;74.73;;;28.77;;
36691;SDS011;22678;52.052;4.242;2023-02-22T07:28:50;63.27;;;27.50;;
36691;SDS011;22678;52.052;4.242;2023-02-22T07:31:16;80.60;;;33.17;;
36691;SDS011;22678;52.052;4.242;2023-02-22T07:33:42;78.07;;;29.80;;
36691;SDS011;22678;52.052;4.242;2023-02-22T07:36:09;80.33;;;29.10;;
36691;SDS011;22678;52.052;4.242;2023-02-22T07:38:35;78.07;;;28.67;;
36691;SDS011;22678;52.052;4.242;2023-02-22T07:41:00;81.00;;;29.83;;
36691;SDS011;22678;52.052;4.242;2023-02-22T07:43:26;75.63;;;29.90;;
36691;SDS011;22678;52.052;4.242;2023-02-22T07:45:54;62.37;;;27.27;;
36691;SDS011;22678;52.052;4.242;2023-02-22T07:48:22;60.47;;;24.70;;
36691;SDS011;22678;52.052;4.242;2023-02-22T07:50:48;58.93;;;24.60;;
36691;SDS011;22678;52.052;4.242;2023-02-22T07:53:16;68.10;;;28.00;;
36691;SDS011;22678;52.052;4.242;2023-02-22T07:55:42;55.70;;;23.07;;
36691;SDS011;22678;52.052;4.242;2023-02-22T07:58:08;60.53;;;26.67;;
36691;SDS011;22678;52.052;4.242;2023-02-22T08:00:39;54.43;;;25.20;;
36691;SDS011;22678;52.052;4.242;2023-02-22T08:03:09;50.83;;;23.47;;
36691;SDS011;22678;52.052;4.242;2023-02-22T08:05:37;59.60;;;23.00;;
36691;SDS011;22678;52.052;4.242;2023-02-22T08:08:04;52.33;;;25.27;;
36691;SDS011;22678;52.052;4.242;2023-02-22T08:10:30;51.67;;;22.97;;
36691;SDS011;22678;52.052;4.242;2023-02-22T08:12:56;48.53;;;23.33;;
36691;SDS011;22678;52.052;4.242;2023-02-22T08:15:29;62.90;;;22.50;;
36691;SDS011;22678;52.052;4.242;2023-02-22T08:18:02;54.37;;;24.77;;
36691;SDS011;22678;52.052;4.242;2023-02-22T08:20:29;48.77;;;24.03;;
36691;SDS011;22678;52.052;4.242;2023-02-22T08:22:55;49.37;;;20.57;;
36691;SDS011;22678;52.052;4.242;2023-02-22T08:25:23;49.97;;;21.20;;
36691;SDS011;22678;52.052;4.242;2023-02-22T08:27:49;48.83;;;21.00;;
36691;SDS011;22678;52.052;4.242;2023-02-22T08:30:18;56.60;;;21.83;;
36691;SDS011;22678;52.052;4.242;2023-02-22T08:32:45;47.53;;;21.50;;
36691;SDS011;22678;52.052;4.242;2023-02-22T08:35:11;52.10;;;22.97;;
36691;SDS011;22678;52.052;4.242;2023-02-22T08:37:40;49.80;;;24.27;;
36691;SDS011;22678;52.052;4.242;2023-02-22T08:40:07;54.03;;;20.67;;
36691;SDS011;22678;52.052;4.242;2023-02-22T08:42:32;46.43;;;19.80;;
36691;SDS011;22678;52.052;4.242;2023-02-22T08:44:58;46.83;;;20.77;;
36691;SDS011;22678;52.052;4.242;2023-02-22T08:47:24;44.90;;;21.00;;
36691;SDS011;22678;52.052;4.242;2023-02-22T08:49:49;43.23;;;16.80;;
36691;SDS011;22678;52.052;4.242;2023-02-22T08:52:15;37.03;;;17.07;;
36691;SDS011;22678;52.052;4.242;2023-02-22T08:54:40;39.03;;;20.00;;
36691;SDS011;22678;52.052;4.242;2023-02-22T08:57:05;43.90;;;20.10;;
36691;SDS011;22678;52.052;4.242;2023-02-22T08:59:30;37.53;;;17.57;;
36691;SDS011;22678;52.052;4.242;2023-02-22T09:01:56;32.23;;;16.50;;
36691;SDS011;22678;52.052;4.242;2023-02-22T09:04:21;37.17;;;18.70;;
36691;SDS011;22678;52.052;4.242;2023-02-22T09:06:46;34.03;;;17.83;;
36691;SDS011;22678;52.052;4.242;2023-02-22T09:09:15;34.77;;;16.07;;
36691;SDS011;22678;52.052;4.242;2023-02-22T09:11:43;39.53;;;17.57;;
36691;SDS011;22678;52.052;4.242;2023-02-22T09:14:08;35.63;;;17.37;;
36691;SDS011;22678;52.052;4.242;2023-02-22T09:16:33;34.80;;;16.50;;
36691;SDS011;22678;52.052;4.242;2023-02-22T09:19:01;36.00;;;16.90;;
36691;SDS011;22678;52.052;4.242;2023-02-22T09:21:28;29.20;;;14.23;;
36691;SDS011;22678;52.052;4.242;2023-02-22T09:23:53;36.83;;;16.43;;
36691;SDS011;22678;52.052;4.242;2023-02-22T09:26:19;32.53;;;15.43;;
36691;SDS011;22678;52.052;4.242;2023-02-22T09:28:47;31.17;;;16.10;;
36691;SDS011;22678;52.052;4.242;2023-02-22T09:31:13;38.77;;;16.63;;
36691;SDS011;22678;52.052;4.242;2023-02-22T09:33:38;38.97;;;18.83;;
36691;SDS011;22678;52.052;4.242;2023-02-22T09:36:05;32.27;;;13.97;;
36691;SDS011;22678;52.052;4.242;2023-02-22T09:38:31;34.70;;;14.87;;
36691;SDS011;22678;52.052;4.242;2023-02-22T09:41:39;35.90;;;16.53;;
36691;SDS011;22678;52.052;4.242;2023-02-22T09:44:10;33.77;;;18.03;;
36691;SDS011;22678;52.052;4.242;2023-02-22T09:46:44;37.67;;;15.67;;
36691;SDS011;22678;52.052;4.242;2023-02-22T09:54:39;27.37;;;12.90;;
36691;SDS011;22678;52.052;4.242;2023-02-22T09:57:09;30.60;;;14.60;;
36691;SDS011;22678;52.052;4.242;2023-02-22T09:59:42;29.53;;;14.30;;
36691;SDS011;22678;52.052;4.242;2023-02-22T10:02:20;29.87;;;16.20;;
36691;SDS011;22678;52.052;4.242;2023-02-22T10:04:51;23.90;;;13.50;;
36691;SDS011;22678;52.052;4.242;2023-02-22T10:07:25;27.67;;;12.80;;
36691;SDS011;22678;52.052;4.242;2023-02-22T10:09:56;25.98;;;12.43;;
36691;SDS011;22678;52.052;4.242;2023-02-22T10:15:17;33.60;;;14.73;;
36691;SDS011;22678;52.052;4.242;2023-02-22T10:23:28;32.42;;;13.93;;
36691;SDS011;22678;52.052;4.242;2023-02-22T10:26:19;31.30;;;14.97;;
36691;SDS011;22678;52.052;4.242;2023-02-22T10:31:27;29.57;;;16.17;;
36691;SDS011;22678;52.052;4.242;2023-02-22T10:34:01;32.47;;;17.53;;
36691;SDS011;22678;52.052;4.242;2023-02-22T10:36:31;27.17;;;13.67;;
36691;SDS011;22678;52.052;4.242;2023-02-22T10:41:37;35.93;;;14.80;;
36691;SDS011;22678;52.052;4.242;2023-02-22T10:44:09;25.48;;;13.32;;
36691;SDS011;22678;52.052;4.242;2023-02-22T10:46:34;31.10;;;14.00;;
36691;SDS011;22678;52.052;4.242;2023-02-22T10:49:02;26.50;;;14.80;;
36691;SDS011;22678;52.052;4.242;2023-02-22T10:51:31;27.57;;;12.10;;
36691;SDS011;22678;52.052;4.242;2023-02-22T10:53:58;27.97;;;15.10;;
36691;SDS011;22678;52.052;4.242;2023-02-22T10:56:33;26.93;;;14.30;;
36691;SDS011;22678;52.052;4.242;2023-02-22T10:58:59;32.93;;;15.10;;
36691;SDS011;22678;52.052;4.242;2023-02-22T11:04:10;24.93;;;11.53;;
36691;SDS011;22678;52.052;4.242;2023-02-22T11:06:49;30.77;;;13.87;;
36691;SDS011;22678;52.052;4.242;2023-02-22T11:09:41;28.37;;;14.13;;
36691;SDS011;22678;52.052;4.242;2023-02-22T11:12:15;23.73;;;12.80;;
36691;SDS011;22678;52.052;4.242;2023-02-22T11:14:42;24.70;;;11.32;;
36691;SDS011;22678;52.052;4.242;2023-02-22T11:17:08;23.50;;;12.83;;
36691;SDS011;22678;52.052;4.242;2023-02-22T11:19:38;24.87;;;14.23;;
36691;SDS011;22678;52.052;4.242;2023-02-22T11:24:50;29.37;;;14.20;;
36691;SDS011;22678;52.052;4.242;2023-02-22T11:35:39;28.23;;;15.53;;
36691;SDS011;22678;52.052;4.242;2023-02-22T11:43:35;36.40;;;13.30;;
36691;SDS011;22678;52.052;4.242;2023-02-22T11:46:02;32.13;;;15.67;;
36691;SDS011;22678;52.052;4.242;2023-02-22T11:48:34;27.43;;;13.60;;
36691;SDS011;22678;52.052;4.242;2023-02-22T12:06:06;28.77;;;15.02;;
36691;SDS011;22678;52.052;4.242;2023-02-22T12:14:16;29.70;;;15.00;;
36691;SDS011;22678;52.052;4.242;2023-02-22T12:17:12;31.47;;;16.57;;
36691;SDS011;22678;52.052;4.242;2023-02-22T12:19:55;27.20;;;15.27;;
36691;SDS011;22678;52.052;4.242;2023-02-22T12:22:27;28.77;;;15.30;;
36691;SDS011;22678;52.052;4.242;2023-02-22T12:27:42;28.70;;;14.98;;
36691;SDS011;22678;52.052;4.242;2023-02-22T12:30:29;28.85;;;16.17;;
36691;SDS011;22678;52.052;4.242;2023-02-22T12:33:19;25.80;;;15.30;;
36691;SDS011;22678;52.052;4.242;2023-02-22T12:35:52;28.65;;;15.50;;
36691;SDS011;22678;52.052;4.242;2023-02-22T12:38:31;31.25;;;15.40;;
36691;SDS011;22678;52.052;4.242;2023-02-22T12:41:21;24.90;;;16.13;;
36691;SDS011;22678;52.052;4.242;2023-02-22T12:43:54;33.75;;;18.27;;
36691;SDS011;22678;52.052;4.242;2023-02-22T12:46:33;31.00;;;14.73;;
36691;SDS011;22678;52.052;4.242;2023-02-22T12:52:13;28.08;;;14.52;;
36691;SDS011;22678;52.052;4.242;2023-02-22T12:55:03;42.20;;;17.80;;
36691;SDS011;22678;52.052;4.242;2023-02-22T12:57:41;23.92;;;14.90;;
36691;SDS011;22678;52.052;4.242;2023-02-22T13:00:26;23.23;;;14.45;;
36691;SDS011;22678;52.052;4.242;2023-02-22T13:03:01;33.57;;;14.30;;
36691;SDS011;22678;52.052;4.242;2023-02-22T13:05:33;27.43;;;16.27;;
36691;SDS011;22678;52.052;4.242;2023-02-22T13:10:52;29.48;;;15.23;;
36691;SDS011;22678;52.052;4.242;2023-02-22T13:13:27;34.53;;;17.48;;
36691;SDS011;22678;52.052;4.242;2023-02-22T13:18:54;32.05;;;14.55;;
36691;SDS011;22678;52.052;4.242;2023-02-22T13:21:51;26.58;;;17.30;;
36691;SDS011;22678;52.052;4.242;2023-02-22T13:25:07;25.83;;;14.95;;
36691;SDS011;22678;52.052;4.242;2023-02-22T13:33:46;22.63;;;13.85;;
36691;SDS011;22678;52.052;4.242;2023-02-22T13:36:06;30.98;;;15.80;;
36691;SDS011;22678;52.052;4.242;2023-02-22T13:41:17;24.77;;;17.77;;
36691;SDS011;22678;52.052;4.242;2023-02-22T13:44:05;28.23;;;17.23;;
36691;SDS011;22678;52.052;4.242;2023-02-22T13:52:00;28.80;;;16.80;;
36691;SDS011;22678;52.052;4.242;2023-02-22T13:58:06;31.27;;;17.65;;
36691;SDS011;22678;52.052;4.242;2023-02-22T14:00:21;26.58;;;16.58;;
36691;SDS011;22678;52.052;4.242;2023-02-22T14:11:04;28.80;;;16.92;;
36691;SDS011;22678;52.052;4.242;2023-02-22T14:16:19;30.85;;;17.67;;
36691;SDS011;22678;52.052;4.242;2023-02-22T14:18:47;30.13;;;17.92;;
36691;SDS011;22678;52.052;4.242;2023-02-22T14:21:18;30.25;;;19.48;;
36691;SDS011;22678;52.052;4.242;2023-02-22T14:23:46;35.08;;;17.85;;
36691;SDS011;22678;52.052;4.242;2023-02-22T14:28:51;32.75;;;19.65;;
36691;SDS011;22678;52.052;4.242;2023-02-22T14:31:18;30.52;;;17.35;;
36691;SDS011;22678;52.052;4.242;2023-02-22T14:33:49;28.50;;;16.35;;
36691;SDS011;22678;52.052;4.242;2023-02-22T14:36:16;33.47;;;18.02;;
36691;SDS011;22678;52.052;4.242;2023-02-22T14:38:55;32.50;;;17.92;;
36691;SDS011;22678;52.052;4.242;2023-02-22T14:41:45;33.20;;;18.13;;
36691;SDS011;22678;52.052;4.242;2023-02-22T14:44:19;36.45;;;19.63;;
36691;SDS011;22678;52.052;4.242;2023-02-22T14:46:49;34.03;;;18.45;;
36691;SDS011;22678;52.052;4.242;2023-02-22T14:49:17;31.65;;;18.60;;
36691;SDS011;22678;52.052;4.242;2023-02-22T14:51:52;39.72;;;23.52;;
36691;SDS011;22678;52.052;4.242;2023-02-22T14:54:25;37.03;;;22.60;;
36691;SDS011;22678;52.052;4.242;2023-02-22T14:56:58;36.40;;;22.50;;
36691;SDS011;22678;52.052;4.242;2023-02-22T14:59:46;47.05;;;27.67;;
36691;SDS011;22678;52.052;4.242;2023-02-22T15:02:21;46.65;;;29.10;;
36691;SDS011;22678;52.052;4.242;2023-02-22T15:04:50;44.65;;;28.10;;
36691;SDS011;22678;52.052;4.242;2023-02-22T15:07:25;48.72;;;27.35;;
36691;SDS011;22678;52.052;4.242;2023-02-22T15:10:06;39.88;;;26.23;;
36691;SDS011;22678;52.052;4.242;2023-02-22T15:12:50;45.58;;;24.20;;
36691;SDS011;22678;52.052;4.242;2023-02-22T15:15:42;40.60;;;26.85;;
36691;SDS011;22678;52.052;4.242;2023-02-22T15:18:14;50.05;;;26.85;;
36691;SDS011;22678;52.052;4.242;2023-02-22T15:21:03;44.00;;;26.48;;
36691;SDS011;22678;52.052;4.242;2023-02-22T15:24:05;44.60;;;26.15;;
36691;SDS011;22678;52.052;4.242;2023-02-22T15:26:35;46.92;;;23.90;;
36691;SDS011;22678;52.052;4.242;2023-02-22T15:29:12;37.70;;;23.65;;
36691;SDS011;22678;52.052;4.242;2023-02-22T15:31:40;47.13;;;25.65;;
36691;SDS011;22678;52.052;4.242;2023-02-22T15:36:39;46.40;;;27.17;;
36691;SDS011;22678;52.052;4.242;2023-02-22T15:39:16;38.90;;;25.05;;
36691;SDS011;22678;52.052;4.242;2023-02-22T15:41:43;44.60;;;26.13;;
36691;SDS011;22678;52.052;4.242;2023-02-22T15:44:09;46.25;;;28.13;;
36691;SDS011;22678;52.052;4.242;2023-02-22T15:46:38;47.35;;;27.88;;
36691;SDS011;22678;52.052;4.242;2023-02-22T15:49:16;46.72;;;28.08;;
36691;SDS011;22678;52.052;4.242;2023-02-22T15:51:43;49.25;;;26.58;;
36691;SDS011;22678;52.052;4.242;2023-02-22T15:54:13;48.88;;;32.03;;
36691;SDS011;22678;52.052;4.242;2023-02-22T15:56:39;53.92;;;32.70;;
36691;SDS011;22678;52.052;4.242;2023-02-22T15:59:12;46.72;;;28.98;;
36691;SDS011;22678;52.052;4.242;2023-02-22T16:01:42;53.53;;;29.85;;
36691;SDS011;22678;52.052;4.242;2023-02-22T16:04:17;48.72;;;26.90;;
36691;SDS011;22678;52.052;4.242;2023-02-22T16:06:45;46.97;;;27.48;;
36691;SDS011;22678;52.052;4.242;2023-02-22T16:09:13;47.50;;;25.53;;
36691;SDS011;22678;52.052;4.242;2023-02-22T16:11:42;47.33;;;28.67;;
36691;SDS011;22678;52.052;4.242;2023-02-22T16:17:11;45.38;;;27.52;;
36691;SDS011;22678;52.052;4.242;2023-02-22T16:19:49;46.80;;;27.33;;
36691;SDS011;22678;52.052;4.242;2023-02-22T16:22:24;48.07;;;28.63;;
36691;SDS011;22678;52.052;4.242;2023-02-22T16:25:11;43.40;;;27.40;;
36691;SDS011;22678;52.052;4.242;2023-02-22T16:27:41;48.08;;;28.45;;
36691;SDS011;22678;52.052;4.242;2023-02-22T16:32:45;45.33;;;24.43;;
36691;SDS011;22678;52.052;4.242;2023-02-22T16:35:12;47.67;;;28.03;;
36691;SDS011;22678;52.052;4.242;2023-02-22T16:37:53;47.50;;;27.57;;
36691;SDS011;22678;52.052;4.242;2023-02-22T16:40:22;45.17;;;25.30;;
36691;SDS011;22678;52.052;4.242;2023-02-22T16:42:49;46.33;;;24.50;;
36691;SDS011;22678;52.052;4.242;2023-02-22T16:45:18;47.27;;;28.03;;
36691;SDS011;22678;52.052;4.242;2023-02-22T16:47:45;46.67;;;28.65;;
36691;SDS011;22678;52.052;4.242;2023-02-22T16:50:10;40.57;;;25.33;;
36691;SDS011;22678;52.052;4.242;2023-02-22T16:52:40;48.25;;;25.48;;
36691;SDS011;22678;52.052;4.242;2023-02-22T16:55:08;50.67;;;25.77;;
36691;SDS011;22678;52.052;4.242;2023-02-22T16:57:35;39.83;;;24.83;;
36691;SDS011;22678;52.052;4.242;2023-02-22T17:00:03;42.22;;;24.92;;
36691;SDS011;22678;52.052;4.242;2023-02-22T17:02:36;44.40;;;24.02;;
36691;SDS011;22678;52.052;4.242;2023-02-22T17:05:02;43.90;;;25.30;;